Timothy L. Reinauer — WDE8763 — position and weather

sailwx.info

Track history (hours):
 
Tides and Currents Weather Stations Pressure Air Temp Water Temp Dewpoint Dewpoint Depression Visibility Wind Speed Wind Dir Waves Ship Positions

Timothy L. Reinauer

Owner: H.A. Reineauer, Staten Island, NY. More information available from US FCC via Universal Licensing System.

Last reported at 2018-Jun-17 14:36 UTC. Time now 2018-Jun-18 01:43 UTC.
Position N 40°39' W 074°11'.

Length 141 m; draft 7 m.

Type: . MMSI: 367409290.

Date/timePositionNaut miles runAvg speedWind from/ knotsBaromVisibWave heightAir tempDewpointWater temp
2018-Jun-17 14:36N 40°39' W 074°11'1 7.0
2018-Jun-17 14:27N 40°39' W 074°10'4 9.1
2018-Jun-17 14:00N 40°39' W 074°05'2 3.4
2018-Jun-17 13:30N 40°39' W 074°02'0 0.2
2018-Jun-17 12:59N 40°39' W 074°03'0 0.1
2018-Jun-17 12:29N 40°39' W 074°03'0 0.1
2018-Jun-17 11:56N 40°39' W 074°03'0 0.0
2018-Jun-17 11:26N 40°39' W 074°02'0 0.0
2018-Jun-17 10:56N 40°39' W 074°02'0 0.0
2018-Jun-17 10:29N 40°39' W 074°02'0 0.0
2018-Jun-17 09:59N 40°39' W 074°03'0 0.3
2018-Jun-17 09:30N 40°39' W 074°03'3 5.5
2018-Jun-17 09:00N 40°41' W 074°01'612.0
2018-Jun-17 08:30N 40°47' W 073°56'53 2.4
2018-Jun-16 10:32N 41°12' W 072°54'0 0.7
2018-Jun-16 10:28N 41°12' W 072°54'52 8.9
2018-Jun-16 04:39N 40°48' W 073°55'2 6.1
2018-Jun-16 04:20N 40°46' W 073°57'2 5.7
2018-Jun-16 03:59N 40°45' W 073°58'3 5.8
2018-Jun-16 03:30N 40°42' W 073°60'3 5.9
2018-Jun-16 03:00N 40°40' W 074°02'0 0.3
2018-Jun-16 02:30N 40°40' W 074°02'0 0.0
2018-Jun-16 02:00N 40°40' W 074°02'0 0.0
2018-Jun-16 01:30N 40°40' W 074°02'0 0.0
2018-Jun-16 01:00N 40°40' W 074°02'0 0.0
2018-Jun-16 00:30N 40°40' W 074°02'0 0.5
2018-Jun-16 00:01N 40°40' W 074°03'3 6.3
2018-Jun-15 23:30N 40°39' W 074°07'4 6.6
2018-Jun-15 22:51N 40°38' W 074°12'1 0.0
2018-Jun-15 02:45N 40°38' W 074°12'2 7.2
2018-Jun-15 02:30N 40°39' W 074°09'2 3.2
2018-Jun-15 01:57N 40°39' W 074°07'0 0.0
2018-Jun-15 01:30N 40°39' W 074°07'0 0.0
2018-Jun-15 01:00N 40°39' W 074°07'0 0.0
2018-Jun-15 00:30N 40°39' W 074°07'0 0.1
2018-Jun-14 23:59N 40°39' W 074°07'0 0.0
2018-Jun-14 23:29N 40°39' W 074°07'0 0.0
2018-Jun-14 22:59N 40°39' W 074°07'0 0.0
2018-Jun-14 22:29N 40°39' W 074°07'0 0.0
2018-Jun-14 21:59N 40°39' W 074°07'0 0.0
2018-Jun-14 21:29N 40°39' W 074°07'0 0.0
2018-Jun-14 20:59N 40°39' W 074°07'0 0.0
2018-Jun-14 20:29N 40°39' W 074°07'0 0.0
2018-Jun-14 19:59N 40°39' W 074°07'1 1.3
2018-Jun-14 19:30N 40°38' W 074°08'0 0.1
2018-Jun-14 18:56N 40°38' W 074°08'0 0.0
2018-Jun-14 18:22N 40°38' W 074°08'0 0.0
2018-Jun-14 17:53N 40°38' W 074°08'0 0.0
2018-Jun-14 17:27N 40°38' W 074°08'0 0.0
2018-Jun-14 16:59N 40°38' W 074°08'0 0.0
2018-Jun-14 16:30N 40°38' W 074°08'1 1.3
2018-Jun-14 16:00N 40°39' W 074°07'0 0.0
2018-Jun-14 15:29N 40°39' W 074°07'0 0.0
2018-Jun-14 14:59N 40°39' W 074°07'0 0.0
2018-Jun-14 14:29N 40°39' W 074°07'0 0.0
2018-Jun-14 13:56N 40°39' W 074°07'0 0.0
2018-Jun-14 13:29N 40°39' W 074°07'0 0.0
2018-Jun-14 13:00N 40°39' W 074°07'0 0.2
2018-Jun-14 12:30N 40°39' W 074°07'0 0.3
2018-Jun-14 12:00N 40°39' W 074°07'0 0.0
2018-Jun-14 11:30N 40°39' W 074°07'2 5.0
2018-Jun-14 11:00N 40°39' W 074°04'4 8.5
2018-Jun-14 10:30N 40°42' W 074°00'3 6.4
2018-Jun-14 10:00N 40°45' W 073°58'57 7.9
2018-Jun-14 02:45N 41°11' W 072°51'1 4.9
2018-Jun-14 02:29N 41°11' W 072°49'2 5.0
2018-Jun-14 02:00N 41°11' W 072°46'3 5.6
2018-Jun-14 01:30N 41°10' W 072°42'3 5.8
2018-Jun-14 01:01N 41°10' W 072°38'4 8.4
2018-Jun-14 00:30N 41°10' W 072°33'5 9.1
2018-Jun-14 00:00N 41°10' W 072°27'4 9.0
2018-Jun-13 23:30N 41°11' W 072°21'5 9.1
2018-Jun-13 22:59N 41°12' W 072°15'46 8.7
2018-Jun-13 17:40N 41°33' W 071°20'510.8
2018-Jun-13 17:15N 41°37' W 071°18'410.5
2018-Jun-13 16:50N 41°41' W 071°19'410.4
2018-Jun-13 16:28N 41°44' W 071°22'4 8.6
2018-Jun-13 15:59N 41°48' W 071°24'0 0.3
2018-Jun-13 15:30N 41°48' W 071°24'0 0.0
2018-Jun-13 09:39N 41°48' W 071°24'0 0.0
2018-Jun-13 09:09N 41°48' W 071°24'0 0.0
2018-Jun-13 08:57N 41°48' W 071°24'0 0.0
2018-Jun-13 08:27N 41°48' W 071°24'0 0.0
2018-Jun-13 07:51N 41°48' W 071°24'0 0.0
2018-Jun-13 07:21N 41°48' W 071°24'0 0.0
2018-Jun-13 06:57N 41°48' W 071°24'0 0.0
2018-Jun-13 06:21N 41°48' W 071°24'0 0.0
2018-Jun-13 05:57N 41°48' W 071°24'0 0.0
2018-Jun-13 05:27N 41°48' W 071°24'0 0.0
2018-Jun-13 04:33N 41°48' W 071°24'0 0.0
2018-Jun-13 04:27N 41°48' W 071°24'0 0.0
2018-Jun-13 03:51N 41°48' W 071°24'0 0.0
2018-Jun-13 02:45N 41°48' W 071°24'0 0.0
2018-Jun-13 01:57N 41°48' W 071°24'0 0.0
2018-Jun-13 01:27N 41°48' W 071°24'0 0.0
2018-Jun-13 00:39N 41°48' W 071°24'0 0.0
2018-Jun-13 00:27N 41°48' W 071°24'0 0.0
2018-Jun-12 23:51N 41°48' W 071°24'0 0.0
2018-Jun-12 23:27N 41°48' W 071°24'0 0.0
2018-Jun-12 22:57N 41°48' W 071°24'0 0.0
2018-Jun-12 22:15N 41°48' W 071°24'0 0.0
2018-Jun-12 21:51N 41°48' W 071°24'0 0.0
2018-Jun-12 21:15N 41°48' W 071°24'0 0.0
2018-Jun-12 20:15N 41°48' W 071°24'0 0.0
2018-Jun-12 19:33N 41°48' W 071°24'0 0.1
2018-Jun-12 19:27N 41°48' W 071°24'0 0.0
2018-Jun-12 18:51N 41°48' W 071°24'0 0.0
2018-Jun-12 18:27N 41°48' W 071°24'0 0.0
2018-Jun-12 17:39N 41°48' W 071°24'0 0.0
2018-Jun-12 17:28N 41°48' W 071°24'0 0.0
2018-Jun-12 16:58N 41°48' W 071°24'1 2.0
2018-Jun-12 16:30N 41°48' W 071°23'4 8.4
2018-Jun-12 16:00N 41°44' W 071°21'4 8.7
2018-Jun-12 15:30N 41°40' W 071°19'32 8.8
2018-Jun-12 11:54N 41°08' W 071°22'4 9.2
2018-Jun-12 11:30N 41°06' W 071°26'8 9.4
2018-Jun-12 10:42N 41°04' W 071°35'2 9.2
2018-Jun-12 10:30N 41°03' W 071°38'8 9.1
2018-Jun-12 09:36N 40°60' W 071°48'1 9.2
2018-Jun-12 09:30N 40°60' W 071°49'5 9.3
2018-Jun-12 09:00N 40°58' W 071°55'6 9.2
2018-Jun-12 08:22N 40°56' W 072°02'4 9.2
2018-Jun-12 07:59N 40°54' W 072°06'5 9.2
2018-Jun-12 07:26N 40°52' W 072°12'8 8.9
2018-Jun-12 06:29N 40°49' W 072°22'7 9.1
2018-Jun-12 05:43N 40°46' W 072°31'1 1.2
2018-Jun-12 05:07N 40°45' W 072°31'72 2.0
2018-Jun-10 17:10N 40°29' W 074°03'310.5
2018-Jun-10 16:55N 40°31' W 074°03'511.5
2018-Jun-10 16:30N 40°36' W 074°03'510.4
2018-Jun-10 16:00N 40°41' W 074°01'60 2.6
2018-Jun-09 17:05N 41°12' W 072°53'0 1.5
2018-Jun-09 16:57N 41°12' W 072°52'0 0.3
2018-Jun-09 16:30N 41°12' W 072°52'0 0.0
2018-Jun-09 15:49N 41°12' W 072°52'0 0.0
2018-Jun-09 15:25N 41°12' W 072°52'0 0.0
2018-Jun-09 12:19N 41°12' W 072°52'0 0.0
2018-Jun-09 11:49N 41°12' W 072°52'0 0.0
2018-Jun-09 11:25N 41°12' W 072°52'0 0.0
2018-Jun-09 09:01N 41°12' W 072°52'0 0.1
2018-Jun-09 08:55N 41°12' W 072°52'0 0.0
2018-Jun-09 08:13N 41°12' W 072°52'0 0.1
2018-Jun-09 07:55N 41°12' W 072°52'0 0.1
2018-Jun-09 06:31N 41°12' W 072°52'0 0.0
2018-Jun-09 06:19N 41°12' W 072°52'0 0.0
2018-Jun-09 05:37N 41°12' W 072°52'0 0.0
2018-Jun-09 05:25N 41°12' W 072°52'0 0.0
2018-Jun-09 04:49N 41°12' W 072°52'0 0.0
2018-Jun-09 04:25N 41°12' W 072°52'0 0.0
2018-Jun-09 03:55N 41°12' W 072°52'0 0.0
2018-Jun-09 03:13N 41°12' W 072°52'0 0.0
2018-Jun-09 02:55N 41°12' W 072°52'0 0.0
2018-Jun-09 02:13N 41°12' W 072°52'0 0.0
2018-Jun-09 01:49N 41°12' W 072°52'0 0.0
2018-Jun-09 01:25N 41°12' W 072°52'0 0.0
2018-Jun-08 21:37N 41°12' W 072°52'0 0.0
2018-Jun-08 20:13N 41°12' W 072°52'0 0.1
2018-Jun-08 19:55N 41°12' W 072°52'0 0.1
2018-Jun-08 19:13N 41°12' W 072°52'0 0.1
2018-Jun-08 18:43N 41°12' W 072°52'0 0.0
2018-Jun-08 18:25N 41°12' W 072°52'0 0.0
2018-Jun-08 17:55N 41°12' W 072°52'0 0.1
2018-Jun-08 17:25N 41°12' W 072°52'0 0.0
2018-Jun-08 16:55N 41°12' W 072°52'0 0.0
2018-Jun-08 16:13N 41°12' W 072°52'0 0.0
2018-Jun-08 15:49N 41°12' W 072°52'0 0.0
2018-Jun-08 15:25N 41°12' W 072°52'0 0.0
2018-Jun-08 14:49N 41°12' W 072°52'19 2.6
2018-Jun-08 07:28N 41°03' W 073°14'5 9.4
2018-Jun-08 06:54N 41°01' W 073°21'28 9.2
2018-Jun-08 03:48N 40°48' W 073°54'3 7.8
2018-Jun-08 03:23N 40°46' W 073°57'3 7.4
2018-Jun-08 03:00N 40°43' W 073°58'4 7.2
2018-Jun-08 02:30N 40°41' W 074°02'1 2.0
2018-Jun-08 02:00N 40°40' W 074°02'0 0.0
2018-Jun-08 01:28N 40°40' W 074°02'0 0.0
2018-Jun-08 00:58N 40°40' W 074°02'0 0.0
2018-Jun-08 00:25N 40°40' W 074°02'0 0.0
2018-Jun-08 00:00N 40°40' W 074°02'0 0.2
2018-Jun-07 23:30N 40°40' W 074°02'0 0.1
2018-Jun-07 23:01N 40°40' W 074°02'0 0.1
2018-Jun-07 22:30N 40°40' W 074°02'0 0.1
2018-Jun-07 22:00N 40°40' W 074°02'0 0.1
2018-Jun-07 21:30N 40°40' W 074°02'0 0.8
2018-Jun-07 21:00N 40°40' W 074°03'4 8.7
2018-Jun-07 20:30N 40°39' W 074°08'3 5.8
2018-Jun-07 19:58N 40°38' W 074°12'  
Track history (hours):
 
Tides and Currents Weather Stations Pressure Air Temp Water Temp Dewpoint Dewpoint Depression Visibility Wind Speed Wind Dir Waves Ship Positions

Timothy L. Reinauer

Owner: H.A. Reineauer, Staten Island, NY. More information available from US FCC via Universal Licensing System.

Last reported at 2018-Jun-17 14:36 UTC. Time now 2018-Jun-18 01:43 UTC.
Position N 40°39' W 074°11'.

Length 141 m; draft 7 m.

Type: . MMSI: 367409290.

Date/timePositionNaut miles runAvg speedWind from/ knotsBaromVisibWave heightAir tempDewpointWater temp
2018-Jun-17 14:36N 40°39' W 074°11'1 7.0
2018-Jun-17 14:27N 40°39' W 074°10'4 9.1
2018-Jun-17 14:00N 40°39' W 074°05'2 3.4
2018-Jun-17 13:30N 40°39' W 074°02'0 0.2
2018-Jun-17 12:59N 40°39' W 074°03'0 0.1
2018-Jun-17 12:29N 40°39' W 074°03'0 0.1
2018-Jun-17 11:56N 40°39' W 074°03'0 0.0
2018-Jun-17 11:26N 40°39' W 074°02'0 0.0
2018-Jun-17 10:56N 40°39' W 074°02'0 0.0
2018-Jun-17 10:29N 40°39' W 074°02'0 0.0
2018-Jun-17 09:59N 40°39' W 074°03'0 0.3
2018-Jun-17 09:30N 40°39' W 074°03'3 5.5
2018-Jun-17 09:00N 40°41' W 074°01'612.0
2018-Jun-17 08:30N 40°47' W 073°56'53 2.4
2018-Jun-16 10:32N 41°12' W 072°54'0 0.7
2018-Jun-16 10:28N 41°12' W 072°54'52 8.9
2018-Jun-16 04:39N 40°48' W 073°55'2 6.1
2018-Jun-16 04:20N 40°46' W 073°57'2 5.7
2018-Jun-16 03:59N 40°45' W 073°58'3 5.8
2018-Jun-16 03:30N 40°42' W 073°60'3 5.9
2018-Jun-16 03:00N 40°40' W 074°02'0 0.3
2018-Jun-16 02:30N 40°40' W 074°02'0 0.0
2018-Jun-16 02:00N 40°40' W 074°02'0 0.0
2018-Jun-16 01:30N 40°40' W 074°02'0 0.0
2018-Jun-16 01:00N 40°40' W 074°02'0 0.0
2018-Jun-16 00:30N 40°40' W 074°02'0 0.5
2018-Jun-16 00:01N 40°40' W 074°03'3 6.3
2018-Jun-15 23:30N 40°39' W 074°07'4 6.6
2018-Jun-15 22:51N 40°38' W 074°12'1 0.0
2018-Jun-15 02:45N 40°38' W 074°12'2 7.2
2018-Jun-15 02:30N 40°39' W 074°09'2 3.2
2018-Jun-15 01:57N 40°39' W 074°07'0 0.0
2018-Jun-15 01:30N 40°39' W 074°07'0 0.0
2018-Jun-15 01:00N 40°39' W 074°07'0 0.0
2018-Jun-15 00:30N 40°39' W 074°07'0 0.1
2018-Jun-14 23:59N 40°39' W 074°07'0 0.0
2018-Jun-14 23:29N 40°39' W 074°07'0 0.0
2018-Jun-14 22:59N 40°39' W 074°07'0 0.0
2018-Jun-14 22:29N 40°39' W 074°07'0 0.0
2018-Jun-14 21:59N 40°39' W 074°07'0 0.0
2018-Jun-14 21:29N 40°39' W 074°07'0 0.0
2018-Jun-14 20:59N 40°39' W 074°07'0 0.0
2018-Jun-14 20:29N 40°39' W 074°07'0 0.0
2018-Jun-14 19:59N 40°39' W 074°07'1 1.3
2018-Jun-14 19:30N 40°38' W 074°08'0 0.1
2018-Jun-14 18:56N 40°38' W 074°08'0 0.0
2018-Jun-14 18:22N 40°38' W 074°08'0 0.0
2018-Jun-14 17:53N 40°38' W 074°08'0 0.0
2018-Jun-14 17:27N 40°38' W 074°08'0 0.0
2018-Jun-14 16:59N 40°38' W 074°08'0 0.0
2018-Jun-14 16:30N 40°38' W 074°08'1 1.3
2018-Jun-14 16:00N 40°39' W 074°07'0 0.0
2018-Jun-14 15:29N 40°39' W 074°07'0 0.0
2018-Jun-14 14:59N 40°39' W 074°07'0 0.0
2018-Jun-14 14:29N 40°39' W 074°07'0 0.0
2018-Jun-14 13:56N 40°39' W 074°07'0 0.0
2018-Jun-14 13:29N 40°39' W 074°07'0 0.0
2018-Jun-14 13:00N 40°39' W 074°07'0 0.2
2018-Jun-14 12:30N 40°39' W 074°07'0 0.3
2018-Jun-14 12:00N 40°39' W 074°07'0 0.0
2018-Jun-14 11:30N 40°39' W 074°07'2 5.0
2018-Jun-14 11:00N 40°39' W 074°04'4 8.5
2018-Jun-14 10:30N 40°42' W 074°00'3 6.4
2018-Jun-14 10:00N 40°45' W 073°58'57 7.9
2018-Jun-14 02:45N 41°11' W 072°51'1 4.9
2018-Jun-14 02:29N 41°11' W 072°49'2 5.0
2018-Jun-14 02:00N 41°11' W 072°46'3 5.6
2018-Jun-14 01:30N 41°10' W 072°42'3 5.8
2018-Jun-14 01:01N 41°10' W 072°38'4 8.4
2018-Jun-14 00:30N 41°10' W 072°33'5 9.1
2018-Jun-14 00:00N 41°10' W 072°27'4 9.0
2018-Jun-13 23:30N 41°11' W 072°21'5 9.1
2018-Jun-13 22:59N 41°12' W 072°15'46 8.7
2018-Jun-13 17:40N 41°33' W 071°20'510.8
2018-Jun-13 17:15N 41°37' W 071°18'410.5
2018-Jun-13 16:50N 41°41' W 071°19'410.4
2018-Jun-13 16:28N 41°44' W 071°22'4 8.6
2018-Jun-13 15:59N 41°48' W 071°24'0 0.3
2018-Jun-13 15:30N 41°48' W 071°24'0 0.0
2018-Jun-13 09:39N 41°48' W 071°24'0 0.0
2018-Jun-13 09:09N 41°48' W 071°24'0 0.0
2018-Jun-13 08:57N 41°48' W 071°24'0 0.0
2018-Jun-13 08:27N 41°48' W 071°24'0 0.0
2018-Jun-13 07:51N 41°48' W 071°24'0 0.0
2018-Jun-13 07:21N 41°48' W 071°24'0 0.0
2018-Jun-13 06:57N 41°48' W 071°24'0 0.0
2018-Jun-13 06:21N 41°48' W 071°24'0 0.0
2018-Jun-13 05:57N 41°48' W 071°24'0 0.0
2018-Jun-13 05:27N 41°48' W 071°24'0 0.0
2018-Jun-13 04:33N 41°48' W 071°24'0 0.0
2018-Jun-13 04:27N 41°48' W 071°24'0 0.0
2018-Jun-13 03:51N 41°48' W 071°24'0 0.0
2018-Jun-13 02:45N 41°48' W 071°24'0 0.0
2018-Jun-13 01:57N 41°48' W 071°24'0 0.0
2018-Jun-13 01:27N 41°48' W 071°24'0 0.0
2018-Jun-13 00:39N 41°48' W 071°24'0 0.0
2018-Jun-13 00:27N 41°48' W 071°24'0 0.0
2018-Jun-12 23:51N 41°48' W 071°24'0 0.0
2018-Jun-12 23:27N 41°48' W 071°24'0 0.0
2018-Jun-12 22:57N 41°48' W 071°24'0 0.0
2018-Jun-12 22:15N 41°48' W 071°24'0 0.0
2018-Jun-12 21:51N 41°48' W 071°24'0 0.0
2018-Jun-12 21:15N 41°48' W 071°24'0 0.0
2018-Jun-12 20:15N 41°48' W 071°24'0 0.0
2018-Jun-12 19:33N 41°48' W 071°24'0 0.1
2018-Jun-12 19:27N 41°48' W 071°24'0 0.0
2018-Jun-12 18:51N 41°48' W 071°24'0 0.0
2018-Jun-12 18:27N 41°48' W 071°24'0 0.0
2018-Jun-12 17:39N 41°48' W 071°24'0 0.0
2018-Jun-12 17:28N 41°48' W 071°24'0 0.0
2018-Jun-12 16:58N 41°48' W 071°24'1 2.0
2018-Jun-12 16:30N 41°48' W 071°23'4 8.4
2018-Jun-12 16:00N 41°44' W 071°21'4 8.7
2018-Jun-12 15:30N 41°40' W 071°19'32 8.8
2018-Jun-12 11:54N 41°08' W 071°22'4 9.2
2018-Jun-12 11:30N 41°06' W 071°26'8 9.4
2018-Jun-12 10:42N 41°04' W 071°35'2 9.2
2018-Jun-12 10:30N 41°03' W 071°38'8 9.1
2018-Jun-12 09:36N 40°60' W 071°48'1 9.2
2018-Jun-12 09:30N 40°60' W 071°49'5 9.3
2018-Jun-12 09:00N 40°58' W 071°55'6 9.2
2018-Jun-12 08:22N 40°56' W 072°02'4 9.2
2018-Jun-12 07:59N 40°54' W 072°06'5 9.2
2018-Jun-12 07:26N 40°52' W 072°12'8 8.9
2018-Jun-12 06:29N 40°49' W 072°22'7 9.1
2018-Jun-12 05:43N 40°46' W 072°31'1 1.2
2018-Jun-12 05:07N 40°45' W 072°31'72 2.0
2018-Jun-10 17:10N 40°29' W 074°03'310.5
2018-Jun-10 16:55N 40°31' W 074°03'511.5
2018-Jun-10 16:30N 40°36' W 074°03'510.4
2018-Jun-10 16:00N 40°41' W 074°01'60 2.6
2018-Jun-09 17:05N 41°12' W 072°53'0 1.5
2018-Jun-09 16:57N 41°12' W 072°52'0 0.3
2018-Jun-09 16:30N 41°12' W 072°52'0 0.0
2018-Jun-09 15:49N 41°12' W 072°52'0 0.0
2018-Jun-09 15:25N 41°12' W 072°52'0 0.0
2018-Jun-09 12:19N 41°12' W 072°52'0 0.0
2018-Jun-09 11:49N 41°12' W 072°52'0 0.0
2018-Jun-09 11:25N 41°12' W 072°52'0 0.0
2018-Jun-09 09:01N 41°12' W 072°52'0 0.1
2018-Jun-09 08:55N 41°12' W 072°52'0 0.0
2018-Jun-09 08:13N 41°12' W 072°52'0 0.1
2018-Jun-09 07:55N 41°12' W 072°52'0 0.1
2018-Jun-09 06:31N 41°12' W 072°52'0 0.0
2018-Jun-09 06:19N 41°12' W 072°52'0 0.0
2018-Jun-09 05:37N 41°12' W 072°52'0 0.0
2018-Jun-09 05:25N 41°12' W 072°52'0 0.0
2018-Jun-09 04:49N 41°12' W 072°52'0 0.0
2018-Jun-09 04:25N 41°12' W 072°52'0 0.0
2018-Jun-09 03:55N 41°12' W 072°52'0 0.0
2018-Jun-09 03:13N 41°12' W 072°52'0 0.0
2018-Jun-09 02:55N 41°12' W 072°52'0 0.0
2018-Jun-09 02:13N 41°12' W 072°52'0 0.0
2018-Jun-09 01:49N 41°12' W 072°52'0 0.0
2018-Jun-09 01:25N 41°12' W 072°52'0 0.0
2018-Jun-08 21:37N 41°12' W 072°52'0 0.0
2018-Jun-08 20:13N 41°12' W 072°52'0 0.1
2018-Jun-08 19:55N 41°12' W 072°52'0 0.1
2018-Jun-08 19:13N 41°12' W 072°52'0 0.1
2018-Jun-08 18:43N 41°12' W 072°52'0 0.0
2018-Jun-08 18:25N 41°12' W 072°52'0 0.0
2018-Jun-08 17:55N 41°12' W 072°52'0 0.1
2018-Jun-08 17:25N 41°12' W 072°52'0 0.0
2018-Jun-08 16:55N 41°12' W 072°52'0 0.0
2018-Jun-08 16:13N 41°12' W 072°52'0 0.0
2018-Jun-08 15:49N 41°12' W 072°52'0 0.0
2018-Jun-08 15:25N 41°12' W 072°52'0 0.0
2018-Jun-08 14:49N 41°12' W 072°52'19 2.6
2018-Jun-08 07:28N 41°03' W 073°14'5 9.4
2018-Jun-08 06:54N 41°01' W 073°21'28 9.2
2018-Jun-08 03:48N 40°48' W 073°54'3 7.8
2018-Jun-08 03:23N 40°46' W 073°57'3 7.4
2018-Jun-08 03:00N 40°43' W 073°58'4 7.2
2018-Jun-08 02:30N 40°41' W 074°02'1 2.0
2018-Jun-08 02:00N 40°40' W 074°02'0 0.0
2018-Jun-08 01:28N 40°40' W 074°02'0 0.0
2018-Jun-08 00:58N 40°40' W 074°02'0 0.0
2018-Jun-08 00:25N 40°40' W 074°02'0 0.0
2018-Jun-08 00:00N 40°40' W 074°02'0 0.2
2018-Jun-07 23:30N 40°40' W 074°02'0 0.1
2018-Jun-07 23:01N 40°40' W 074°02'0 0.1
2018-Jun-07 22:30N 40°40' W 074°02'0 0.1
2018-Jun-07 22:00N 40°40' W 074°02'0 0.1
2018-Jun-07 21:30N 40°40' W 074°02'0 0.8
2018-Jun-07 21:00N 40°40' W 074°03'4 8.7
2018-Jun-07 20:30N 40°39' W 074°08'3 5.8
2018-Jun-07 19:58N 40°38' W 074°12'  

Dump ship's entire track history